Weather at Cerklje ob Krki Air Base

Public forecast

Using degrees Celsius for public forecast. Weather courtesy of forecast.io.

Current aviation weather report (METAR) for Cerklje ob Krki Air Base

2024/05/26 14:00 (retrieved 32 minutes ago)

LJCE 261400Z 06003KT 290V110 9999 FEW035 SCT100 BKN200 22/13 Q1019 RMK BLU

Closest aviation forecast (TAF) to Cerklje ob Krki Air Base

Closest forecast is Zagreb Airport, 24.4 nm (45.2 km) ESE.

2024/05/26 12:27 (retrieved 2 hours ago)

TAF LDZA 261125Z 2612/2712 VRB02KT 9999 SCT040 TX20/2614Z TN12/2703Z PROB30 TEMPO 2615/2618 TSRA FEW030CB SCT040 PROB40 2621/2707 0200 FG VV001 PROB30 2707/2708 3500 BR BKN005